Latest Weather Observations for Lochington

IDQ60801

Issued at 5:35 pm EST Wednesday 1 October 2014 (issued every 30 minutes, with the page automatically refreshed every 10 minutes)

About weather observations | Map of weather stations | Latest weather observations for QLD | Other Formats
Station Details ID: 035139 Name: LOCHINGTON Lat: -23.94 Lon: 147.53 Height: 267.19 m
Data from the previous 72 hours. | See also: Recent months at Lochington
Date/Time
EST
Temp
°C
App
Temp
°C
Dew
Point
Rel
Hum
%
Delta-T
°C
Wind Press
QNH
hPa
Press
MSL
hPa
Rain
since 9 am
mm
Dir
 
Spd
km/h
Gust
km/h
Spd
kts
Gust
kts
01/05:30pm 30.5 29.1 3.5 18 13.9 NE 0 4 0 2 1015.2 1013.9 0.0
01/05:00pm 30.7 28.6 2.0 16 14.4 SE 2 4 1 2 1015.0 1013.7 0.0
01/04:30pm 31.2 28.9 0.6 14 15.1 SE 2 7 1 4 1015.0 1013.7 0.0
01/04:00pm 31.2 28.0 0.6 14 15.1 NNE 7 13 4 7 1014.8 1013.5 0.0
01/03:30pm 30.9 28.3 3.0 17 14.3 ESE 6 9 3 5 1015.2 1013.9 0.0
01/03:00pm 31.2 29.4 5.6 20 13.7 SSW 4 7 2 4 1015.5 1014.2 0.0
01/02:30pm 30.6 28.7 6.5 22 13.1 N 6 9 3 5 1015.7 1014.4 0.0
01/02:00pm 30.2 28.8 7.4 24 12.5 W 4 7 2 4 1016.3 1014.9 0.0
01/01:30pm 29.4 28.2 7.9 26 11.8 NE 4 9 2 5 1016.8 1015.4 0.0
01/01:00pm 29.4 28.0 9.5 29 11.2 WNW 7 9 4 5 1017.4 1016.0 0.0
01/12:30pm 28.1 26.9 9.4 31 10.5 WNW 6 9 3 5 1018.2 1016.9 0.0
01/12:00pm 27.2 26.0 9.5 33 9.9 SW 6 13 3 7 1018.9 1017.6 0.0
01/11:30am 26.1 25.6 9.5 35 9.2 ESE 2 4 1 2 1019.4 1018.1 0.0
01/11:00am 25.9 25.1 9.7 36 9.0 S 4 7 2 4 1019.8 1018.5 0.0
01/10:30am 25.0 24.1 10.5 40 8.2 NNW 6 13 3 7 1020.1 1018.7 0.0
01/10:00am 24.1 22.5 8.9 38 8.3 N 7 13 4 7 1020.4 1019.0 0.0
01/09:30am 23.5 21.0 8.0 37 8.3 N 11 19 6 10 1020.7 1019.8 0.0
01/09:00am 22.6 20.3 9.0 42 7.3 NNW 11 17 6 9 1020.7 1019.8 0.0
01/08:30am 21.2 20.1 9.8 48 6.2 NNE 6 11 3 6 1020.7 1019.8 0.0
01/08:00am 19.6 18.3 9.2 51 5.5 NE 6 9 3 5 1020.7 1019.8 0.0
01/07:30am 18.6 17.8 9.7 56 4.8 E 4 6 2 3 1020.6 1019.7 0.0
01/07:00am 16.2 16.3 10.3 68 3.1 CALM 0 2 0 1 1020.2 1019.2 0.0
01/06:30am 14.4 13.6 9.8 74 2.4 E 4 6 2 3 1019.8 1018.9 0.0
01/06:00am 14.2 12.9 9.2 72 2.6 E 6 6 3 3 1019.3 1018.4 0.0
01/05:30am 14.3 12.8 9.3 72 2.6 E 7 9 4 5 1019.0 1018.1 0.0
01/05:00am 14.4 13.4 9.0 70 2.8 E 4 6 2 3 1018.6 1017.7 0.0
01/04:30am 15.0 13.5 9.1 68 3.1 E 7 9 4 5 1018.3 1017.4 0.0
01/04:00am 15.3 13.4 9.2 67 3.2 E 9 11 5 6 1018.0 1017.1 0.0
01/03:30am 15.7 13.4 8.9 64 3.5 E 11 13 6 7 1017.9 1017.0 0.0
01/03:00am 16.5 13.8 9.0 61 3.9 ENE 13 15 7 8 1017.9 1017.0 0.0
01/02:30am 16.7 14.4 8.9 60 4.1 E 11 17 6 9 1018.1 1017.2 0.0
01/02:00am 17.2 14.9 9.1 59 4.3 ENE 11 15 6 8 1018.4 1017.5 0.0
01/01:30am 16.1 14.3 9.3 64 3.6 E 9 11 5 6 1018.6 1017.7 0.0
01/01:00am 17.1 14.9 9.5 61 4.0 E 11 15 6 8 1018.5 1017.6 0.0
01/12:30am 15.2 13.4 9.6 69 2.9 E 9 11 5 6 1018.7 1017.8 0.0
01/12:00am 17.4 15.9 9.1 58 4.4 NE 7 9 4 5 1018.6 1017.7 0.0
 
Date/Time
EST
Temp
°C
App
Temp
°C
Dew
Point
Rel
Hum
%
Delta-T
°C
Wind Press
QNH
hPa
Press
MSL
hPa
Rain
since 9 am
mm
Dir
 
Spd
km/h
Gust
km/h
Spd
kts
Gust
kts
30/11:30pm 17.8 17.3 9.2 57 4.5 NW 2 4 1 2 1018.5 1017.6 0.0
30/11:00pm 17.0 16.2 9.7 62 3.9 WNW 4 7 2 4 1018.6 1017.7 0.0
30/10:30pm 18.1 18.1 9.7 58 4.5 CALM 0 0 0 0 1018.6 1017.7 0.0
30/10:00pm 18.8 18.5 8.7 52 5.3 CALM 0 0 0 0 1018.6 1017.7 0.0
30/09:30pm 21.0 19.2 7.3 41 7.1 NE 6 7 3 4 1018.6 1017.7 0.0
30/09:00pm 21.6 19.4 7.8 41 7.3 NE 9 9 5 5 1018.4 1017.5 0.0
30/08:30pm 22.2 20.0 8.0 40 7.5 NNE 9 9 5 5 1018.3 1017.4 0.0
30/08:00pm 22.8 20.7 8.1 39 7.8 NNE 9 11 5 6 1018.0 1017.1 0.0
30/07:30pm 23.2 21.0 7.7 37 8.2 NNE 9 9 5 5 1017.7 1016.8 0.0
30/07:00pm 23.9 22.2 8.3 37 8.4 NNE 7 9 4 5 1017.5 1016.6 0.0
30/06:30pm 25.2 23.2 7.3 32 9.5 NE 7 9 4 5 1017.1 1016.1 0.0
30/06:00pm 26.5 24.7 7.0 29 10.4 ENE 6 7 3 4 1016.7 1015.7 0.0
30/05:30pm 27.6 25.5 5.8 25 11.5 NE 6 9 3 5 1016.4 1015.4 0.0
30/05:00pm 28.2 26.0 6.3 25 11.7 ENE 7 13 4 7 1016.3 1015.3 0.0
30/04:30pm 28.1 26.0 6.8 26 11.4 ESE 7 15 4 8 1016.2 1015.2 0.0
30/04:00pm 28.4 25.6 7.1 26 11.5 E 11 17 6 9 1016.2 1015.2 0.0
30/03:30pm 28.5 26.5 7.1 26 11.6 ENE 7 20 4 11 1016.3 1015.3 0.0
30/03:00pm 28.7 27.1 8.9 29 11.0 N 7 17 4 9 1016.5 1015.5 0.0
30/02:30pm 27.9 25.3 7.7 28 11.0 ENE 11 20 6 11 1016.8 1015.8 0.0
30/02:00pm 27.8 24.4 7.6 28 11.0 ENE 15 22 8 12 1017.2 1016.2 0.0
30/01:30pm 27.8 25.9 9.1 31 10.4 NE 9 15 5 8 1017.8 1016.9 0.0
30/01:00pm 27.2 24.8 10.0 34 9.7 NNE 13 20 7 11 1018.3 1017.4 0.0
30/12:30pm 26.9 24.9 10.2 35 9.4 NNE 11 20 6 11 1018.9 1018.0 0.0
30/12:00pm 26.8 25.4 10.9 37 9.1 E 9 22 5 12 1019.6 1018.7 0.0
30/11:30am 25.8 24.3 10.4 38 8.7 NNE 9 19 5 10 1020.3 1019.3 0.0
30/11:00am 24.6 22.9 9.7 39 8.2 NNE 9 19 5 10 1020.8 1019.9 0.0
30/10:30am 24.4 22.4 10.3 41 7.9 N 11 19 6 10 1021.0 1020.1 0.0
30/10:00am 23.8 22.1 11.2 45 7.1 NNE 11 17 6 9 1021.5 1020.6 0.0
30/09:30am 22.9 20.5 10.0 44 7.1 NE 13 20 7 11 1021.9 1021.0 0.0
30/09:00am 22.0 19.9 9.9 46 6.6 NNE 11 20 6 11 1021.9 1021.0 0.0
30/08:30am 20.7 19.3 10.8 53 5.5 NNE 9 19 5 10 1021.8 1020.9 0.0
30/08:00am 19.1 17.5 11.4 61 4.3 NE 11 17 6 9 1021.6 1020.7 0.0
30/07:30am 18.1 17.6 12.5 70 3.2 NE 7 13 4 7 1021.2 1020.3 0.0
30/07:00am 17.1 17.5 13.6 80 2.0 E 4 7 2 4 1021.0 1020.1 0.0
30/06:30am 14.6 14.4 11.7 83 1.6 ENE 4 6 2 3 1020.5 1019.5 0.0
30/06:00am 14.4 13.3 12.1 86 1.3 ENE 9 11 5 6 1020.2 1019.2 0.0
30/05:30am 14.7 13.7 12.2 85 1.4 ENE 9 11 5 6 1019.8 1018.9 0.0
30/05:00am 14.3 13.7 11.6 84 1.5 E 6 7 3 4 1019.4 1018.5 0.0
30/04:30am 14.7 13.8 11.5 81 1.7 E 7 9 4 5 1018.8 1017.9 0.0
30/04:00am 15.5 14.0 11.9 79 2.0 E 11 13 6 7 1018.7 1017.8 0.0
30/03:30am 16.0 14.5 11.8 76 2.3 E 11 13 6 7 1018.6 1017.7 0.0
30/03:00am 16.4 14.5 11.8 74 2.5 E 13 15 7 8 1018.6 1017.7 0.0
30/02:30am 16.8 14.8 11.5 71 2.9 ENE 13 15 7 8 1018.7 1017.8 0.0
30/02:00am 17.2 15.3 11.7 70 3.0 ENE 13 19 7 10 1018.7 1017.8 0.0
30/01:30am 16.8 14.5 10.6 67 3.3 E 13 15 7 8 1018.7 1017.8 0.0
30/01:00am 17.8 16.3 10.7 63 3.9 ENE 9 11 5 6 1018.7 1017.8 0.0
30/12:30am 18.3 16.7 10.2 59 4.4 ENE 9 13 5 7 1018.8 1017.9 0.0
30/12:00am 17.1 16.7 11.2 68 3.2 E 4 6 2 3 1018.8 1017.9 0.0
 
Date/Time
EST
Temp
°C
App
Temp
°C
Dew
Point
Rel
Hum
%
Delta-T
°C
Wind Press
QNH
hPa
Press
MSL
hPa
Rain
since 9 am
mm
Dir
 
Spd
km/h
Gust
km/h
Spd
kts
Gust
kts
29/11:30pm 16.8 17.1 10.9 68 3.2 CALM 0 0 0 0 1018.9 1018.0 0.0
29/11:00pm 17.3 17.6 10.9 66 3.5 CALM 0 0 0 0 1018.8 1017.9 0.0
29/10:30pm 17.4 17.7 10.8 65 3.6 CALM 0 0 0 0 1018.9 1018.0 0.0
29/10:00pm 18.1 17.7 11.0 63 3.9 E 4 7 2 4 1018.9 1018.0 0.0
29/09:30pm 18.4 18.3 10.8 61 4.2 NE 2 4 1 2 1018.9 1018.0 0.0
29/09:00pm 21.4 20.1 9.9 48 6.3 NE 7 7 4 4 1018.8 1017.9 0.0
29/08:30pm 22.0 20.9 9.9 46 6.6 NE 6 7 3 4 1018.6 1017.7 0.0
29/08:00pm 22.9 21.6 10.0 44 7.1 NNE 7 9 4 5 1018.5 1017.6 0.0
29/07:30pm 23.2 22.1 10.6 45 7.0 NNE 7 9 4 5 1018.0 1017.1 0.0
29/07:00pm 23.3 21.8 10.4 44 7.2 NNE 9 11 5 6 1017.6 1016.7 0.0
29/06:30pm 23.8 22.5 10.1 42 7.6 N 7 9 4 5 1017.4 1016.5 0.0
29/06:00pm 25.6 24.3 9.8 37 8.8 NNE 7 11 4 6 1017.0 1016.0 0.0
29/05:30pm 27.1 25.6 9.0 32 10.0 NE 7 11 4 6 1016.6 1015.6 0.0
29/05:00pm 27.4 25.6 9.3 32 10.1 NNE 9 15 5 8 1016.4 1015.4 0.0
29/04:30pm 27.4 25.0 8.8 31 10.3 NNE 11 19 6 10 1016.3 1015.3 0.0
29/04:00pm 27.5 26.0 9.3 32 10.2 E 7 13 4 7 1016.3 1015.3 0.0
29/03:30pm 27.5 26.0 9.3 32 10.2 ENE 7 15 4 8 1016.4 1015.4 0.0
29/03:00pm 27.3 25.5 9.6 33 9.9 ENE 9 15 5 8 1016.7 1015.7 0.0
29/02:30pm 27.3 26.0 10.1 34 9.7 E 7 15 4 8 1016.8 1015.8 0.0
29/02:00pm 26.7 26.4 11.6 39 8.7 ESE 4 9 2 5 1017.2 1016.2 0.0
29/01:30pm 26.3 25.3 12.4 42 8.1 ENE 9 20 5 11 1017.7 1016.8 0.0
29/01:00pm 25.9 24.8 13.1 45 7.5 NE 11 19 6 10 1018.4 1017.5 0.0
29/12:30pm 25.5 24.7 13.0 46 7.4 NE 9 19 5 10 1018.9 1018.0 0.0
29/12:00pm 24.3 24.3 13.5 51 6.4 ENE 6 13 3 7 1019.4 1018.5 0.0
29/11:30am 23.1 23.1 14.1 57 5.3 NE 7 15 4 8 1020.2 1019.2 0.0
29/11:00am 21.6 21.6 13.5 60 4.7 N 6 11 3 6 1020.7 1019.8 0.0
29/10:30am 21.1 20.1 13.5 62 4.4 NNE 11 22 6 12 1020.8 1019.9 0.0
29/10:00am 20.8 19.5 13.7 64 4.1 NNE 13 20 7 11 1021.0 1020.1 0.0
29/09:30am 21.2 19.4 13.4 61 4.5 NE 15 20 8 11 1021.1 1020.2 0.0
29/09:00am 20.5 19.1 14.4 68 3.6 NE 15 20 8 11 1021.0 1020.1 0.0
29/08:30am 19.3 18.2 15.2 77 2.4 ENE 15 22 8 12 1021.0 1020.1 0.0
29/08:00am 17.8 16.8 14.7 82 1.8 ENE 13 19 7 10 1021.1 1020.2 0.0
29/07:30am 17.7 17.1 14.6 82 1.8 E 11 17 6 9 1021.1 1020.2 0.0
29/07:00am 17.0 17.1 14.5 85 1.4 E 7 11 4 6 1020.7 1019.8 0.0
29/06:30am 15.7 15.8 13.9 89 1.0 E 6 9 3 5 1019.9 1019.0 0.0
29/06:00am 14.5 14.2 12.7 89 1.0 E 6 9 3 5 1019.6 1018.7 0.0
29/05:30am 14.0 13.3 11.9 87 1.1 E 7 11 4 6 1019.0 1018.1 0.0
29/05:00am 14.9 13.9 12.2 84 1.5 ENE 9 9 5 5 1018.5 1017.6 0.0
29/04:30am 13.5 12.9 10.3 81 1.7 E 4 6 2 3 1018.4 1017.5 0.0
29/04:00am 15.0 14.2 11.0 77 2.1 E 6 7 3 4 1018.3 1017.4 0.0
29/03:30am 15.2 14.1 10.6 74 2.5 E 7 9 4 5 1018.2 1017.3 0.0
29/03:00am 15.7 14.6 10.7 72 2.7 ENE 7 11 4 6 1018.2 1017.3 0.0
29/02:30am 15.7 14.2 10.7 72 2.7 E 9 11 5 6 1018.4 1017.5 0.0
29/02:00am 15.7 14.0 10.0 69 3.0 E 9 11 5 6 1018.6 1017.7 0.0
29/01:30am 16.1 13.9 9.3 64 3.6 E 11 13 6 7 1018.7 1017.8 0.0
29/01:00am 15.7 13.2 8.4 62 3.7 E 11 15 6 8 1018.8 1017.9 0.0
29/12:30am 15.9 14.0 8.9 63 3.6 E 9 13 5 7 1018.7 1017.8 0.0
29/12:00am 15.4 13.9 8.4 63 3.6 E 6 7 3 4 1018.5 1017.6 0.0
 
Date/Time
EST
Temp
°C
App
Temp
°C
Dew
Point
Rel
Hum
%
Delta-T
°C
Wind Press
QNH
hPa
Press
MSL
hPa
Rain
since 9 am
mm
Dir
 
Spd
km/h
Gust
km/h
Spd
kts
Gust
kts
28/11:30pm 16.0 15.7 8.7 62 3.8 CALM 0 0 0 0 1018.6 1017.7 0.0
28/11:00pm 17.6 16.0 8.2 54 4.9 E 6 9 3 5 1018.7 1017.8 0.0
28/10:30pm 16.1 15.0 8.6 61 3.9 WNW 4 6 2 3 1018.6 1017.7 0.0
28/10:00pm 17.2 16.1 8.4 56 4.6 WNW 4 6 2 3 1018.6 1017.7 0.0
28/09:30pm 17.9 17.0 7.6 51 5.3 W 2 4 1 2 1018.4 1017.5 0.0
28/09:00pm 18.4 17.6 6.6 46 5.9 CALM 0 0 0 0 1018.3 1017.4 0.0
28/08:30pm 20.3 19.4 5.9 39 7.3 CALM 0 0 0 0 1018.0 1017.1 0.0
28/08:00pm 21.9 19.4 4.9 33 8.5 N 7 7 4 4 1017.5 1016.6 0.0
28/07:30pm 22.4 19.5 4.9 32 8.8 N 9 9 5 5 1017.3 1016.4 0.0
28/07:00pm 23.1 20.3 5.1 31 9.1 N 9 9 5 5 1017.1 1016.1 0.0
28/06:30pm 23.9 21.7 5.3 30 9.5 N 6 7 3 4 1016.7 1015.7 0.0
28/06:00pm 26.3 24.1 5.3 26 10.9 NNE 6 7 3 4 1016.4 1015.4 0.0

Other Formats:

Comma delimited format used in spreadsheet applications
http://www.bom.gov.au/fwo/IDQ60801/IDQ60801.94399.axf

JavaScript Object Notation format (JSON) in row-major order
http://www.bom.gov.au/fwo/IDQ60801/IDQ60801.94399.json